createdAt,value
2018-10-18T00:20:29.270Z,23.70
2018-10-18T00:33:36.624Z,23.70
2018-10-18T00:46:43.938Z,23.70
2018-10-18T00:59:51.236Z,23.70
2018-10-18T01:12:58.551Z,23.70
2018-10-18T01:39:08.656Z,23.70
2018-10-18T01:52:15.998Z,23.70
2018-10-18T02:05:23.379Z,23.70
2018-10-18T02:18:30.715Z,23.60
2018-10-18T02:31:38.025Z,23.70
2018-10-18T02:44:45.349Z,23.70
2018-10-18T03:10:55.159Z,23.70
2018-10-18T03:24:02.557Z,23.60
2018-10-18T03:37:09.824Z,23.70
2018-10-18T04:03:19.887Z,23.70
2018-10-18T04:16:27.207Z,23.70
2018-10-18T04:42:37.131Z,23.70
2018-10-18T05:08:46.907Z,23.60
2018-10-18T05:21:54.247Z,23.70
2018-10-18T05:35:01.641Z,23.70
2018-10-18T05:48:08.939Z,23.70
2018-10-18T06:01:16.273Z,23.60
2018-10-18T06:14:23.613Z,23.50
2018-10-18T06:27:30.938Z,23.40
2018-10-18T06:40:38.364Z,23.40
2018-10-18T06:53:45.698Z,23.40
2018-10-18T07:06:53.312Z,23.30
2018-10-18T07:20:00.616Z,23.10
2018-10-18T07:33:07.988Z,22.80
2018-10-18T07:46:15.321Z,22.80
2018-10-18T07:59:22.685Z,22.80
2018-10-18T08:12:30.479Z,22.70
2018-10-18T08:38:41.106Z,22.20
2018-10-18T08:51:48.429Z,22.30
2018-10-18T09:04:55.763Z,22.30
2018-10-18T09:18:03.122Z,22.30
2018-10-18T09:44:13.241Z,22.00
2018-10-18T09:57:20.581Z,22.00
2018-10-18T10:10:27.933Z,21.90
2018-10-18T10:36:38.008Z,22.10
2018-10-18T10:49:45.383Z,21.80
2018-10-18T11:02:52.716Z,21.70
2018-10-18T11:16:00.037Z,21.90
2018-10-18T11:29:07.337Z,21.90
2018-10-18T11:42:14.597Z,22.00
2018-10-18T11:55:21.759Z,21.80
2018-10-18T12:08:28.994Z,22.00
2018-10-18T12:34:38.805Z,22.10
2018-10-18T12:47:45.973Z,22.30
2018-10-18T13:00:53.214Z,22.40
2018-10-18T13:27:02.979Z,22.40
2018-10-18T13:40:10.179Z,22.50
2018-10-18T13:53:17.350Z,22.50
2018-10-18T14:06:24.559Z,22.50
2018-10-18T14:19:32.110Z,22.40
2018-10-18T14:32:39.503Z,22.40
2018-10-18T14:45:46.665Z,22.40
2018-10-18T14:58:53.878Z,22.40
2018-10-18T15:12:00.989Z,22.40
2018-10-18T15:25:08.268Z,22.40
2018-10-18T15:38:15.525Z,22.50
2018-10-18T15:51:22.623Z,22.40
2018-10-18T16:04:29.791Z,22.30
2018-10-18T16:17:37.096Z,22.30
2018-10-18T16:30:44.268Z,22.30
2018-10-18T16:56:54.234Z,22.30
2018-10-18T17:10:01.433Z,22.30
2018-10-18T17:23:08.637Z,22.40
2018-10-18T17:36:16.044Z,22.50
2018-10-18T17:49:23.218Z,22.60
2018-10-18T18:02:30.499Z,22.60
2018-10-18T18:15:37.850Z,22.70
2018-10-18T18:28:45.062Z,22.70
2018-10-18T18:41:52.343Z,22.70
2018-10-18T19:08:02.035Z,22.80
2018-10-18T19:21:09.322Z,22.80
2018-10-18T19:34:16.576Z,22.80
2018-10-18T19:47:23.845Z,22.80
2018-10-18T20:00:31.271Z,22.80
2018-10-18T20:26:41.297Z,22.50
2018-10-18T20:39:48.668Z,22.10
2018-10-18T20:52:55.967Z,22.40
2018-10-18T21:06:03.174Z,22.50
2018-10-18T21:19:11.373Z,22.60
2018-10-18T21:32:18.759Z,22.60
2018-10-18T21:45:25.952Z,22.70
2018-10-18T21:58:33.132Z,22.60
2018-10-18T22:11:40.330Z,22.60
2018-10-18T22:24:47.478Z,22.60
2018-10-18T22:37:54.681Z,22.60
2018-10-18T22:51:02.005Z,22.50
2018-10-18T23:04:09.113Z,22.50
2018-10-18T23:17:16.357Z,22.50
2018-10-18T23:30:23.507Z,22.50
2018-10-18T23:43:30.670Z,22.50
